WEATHER DATA

YESTERDAY
Time Temp. Dewp. Hum. Bar.
00:08 9.6 6.9 83 1025.8
00:17 9.5 6.8 83 1025.6
00:27 9.3 6.6 83 1025.7
00:37 9.2 6.6 84 1025.6
00:48 9.1 6.5 84 1025.6
00:57 9 6.4 84 1025.5
01:07 8.9 6.3 84 1025.7
01:18 8.8 6.4 85 1025.6
01:28 8.7 6.3 85 1025.6
01:37 8.7 6.3 85 1025.5
01:47 8.6 6.2 85 1025.4
01:58 8.6 6.2 85 1025.2
02:07 8.5 6.3 86 1025.3
02:17 8.5 6.3 86 1025.2
02:28 8.5 6.3 86 1025.1
02:38 8.5 6.3 86 1025.1
02:47 8.7 6.7 87 1025
02:58 9 7.1 88 1025
03:08 9.4 7.5 88 1024.9
03:18 9.7 7.8 88 1024.7
03:27 9.7 7.6 87 1024.8
03:38 9.7 7.6 87 1024.7
03:48 9.6 7.5 87 1024.6
03:57 9.5 7.4 87 1024.6
04:08 9.6 7.7 88 1024.3
04:18 9.9 8 88 1024.3
04:28 10.2 8.3 88 1024.3
04:37 10.3 8.4 88 1024.1
04:48 10.3 8.2 87 1024
04:58 10 7.9 87 1023.8
05:08 9.7 7.5 86 1023.8
05:18 9.5 7.3 86 1023.7
05:28 9.2 7 86 1023.5
05:38 9 6.8 86 1023.5
05:48 8.7 6.5 86 1023.5
05:58 8.5 6.3 86 1023.4
06:08 8.3 6.1 86 1023.6
06:18 8.3 6.3 87 1023.5
06:29 8.3 6.3 87 1023.4
06:38 8.3 6.3 87 1023.5
06:48 8.3 6.3 87 1023.5
06:58 8.3 6.3 87 1023.7
07:09 8.3 6.3 87 1023.8
07:19 8.2 6.2 87 1023.9
07:49 8.6 6.7 88 1023.9
07:59 9.1 7.4 89 1023.8
08:09 9.7 8 89 1023.7
08:20 10.6 8.7 88 1023.6
08:29 11.4 9.3 87 1023.7
08:39 12.3 9.7 84 1023.8
08:50 13.1 9.7 80 1023.9
09:00 14 9.6 75 1023.8
09:09 14.5 9.5 72 1023.7
09:30 15.8 9.9 68 1023.5
09:40 16.3 10.2 67 1023.4
10:00 16.8 9.7 63 1023.2
10:10 17 9.2 60 1023.3
10:29 17.1 9 59 1023.2
10:40 17.2 9.4 60 1023.1
10:59 17.8 9.7 59 1022.8
11:10 17.8 9.7 59 1022.8
11:30 18.3 9.6 57 1022.6
11:40 18.4 9.5 56 1022.4
12:00 18.9 9.9 56 1022.2
12:10 19.3 9.8 54 1022
12:21 19.6 9.2 51 1022
12:30 19.7 9.3 51 1021.9
12:40 20 9.6 51 1021.9
13:01 20 9 49 1021.8
13:10 20.1 9.1 49 1021.8
13:20 20.2 9.8 51 1021.7
13:31 20.3 9.8 51 1021.6
13:41 20.2 9.2 49 1021.8
13:50 20 9.3 50 1021.7
14:01 19.9 8.9 49 1021.8
14:11 19.9 8.9 49 1021.8
14:21 19.7 9 50 1021.7
14:31 19.7 9 50 1021.6
14:41 19.5 9.4 52 1021.4
14:51 19.4 9 51 1021.2
15:01 19.4 9 51 1020.9
15:11 19.2 8.8 51 1021
15:21 19 8.9 52 1021
15:31 18.9 8.8 52 1020.8
15:41 18.7 8.9 53 1020.7
15:52 18.4 8.9 54 1020.6
16:02 18.3 9.1 55 1019.5
16:21 18 9.1 56 1019
16:32 17.9 9.3 57 1018.8
16:42 17.7 9.1 57 1018.7
16:51 17.8 9.4 58 1018.5
17:02 18.1 9.5 57 1018.4
17:12 18.4 10 58 1018.2
17:22 18.4 10 58 1018.1
17:32 18.5 10.1 58 1018.1
17:42 18 9.6 58 1018
17:52 17.6 9.5 59 1018
18:02 17.1 9.5 61 1017.9
18:12 16.6 9.3 62 1017.7
18:22 16.2 9.2 63 1017.6
18:32 15.8 9 64 1017.6
18:42 15.6 9.3 66 1017.4
18:52 15.3 9.2 67 1017.4
19:02 15.1 9.2 68 1017.2
19:12 15 9.4 69 1017.2
19:23 14.9 9.3 69 1017.1
19:32 14.8 9.4 70 1017.1
19:42 14.7 9.5 71 1017.1
19:52 14.7 9.7 72 1016.8
20:03 14.7 9.7 72 1016.8
20:12 14.6 9.8 73 1016.7
20:22 14.6 9.8 73 1016.7
20:33 14.6 9.8 73 1016.6
20:43 14.5 9.7 73 1016.4
20:52 14.4 9.8 74 1016.2
21:03 14.3 9.5 73 1016.3
21:13 14.3 9.5 73 1016.2
21:22 14.3 9.5 73 1016.2
21:32 14.2 9.4 73 1016.3
21:43 14.1 9.3 73 1016.1
21:53 14 9.2 73 1016.1
22:02 13.9 9.1 73 1016
22:13 13.8 9.3 74 1016.1
22:23 13.7 9.2 74 1015.8
22:33 13.7 9.2 74 1015.8
22:43 13.6 9.1 74 1015.8
22:53 13.5 9 74 1015.6
23:03 13.5 8.8 73 1015.5
23:13 13.5 8.8 73 1015.4
23:23 13.5 8.8 73 1015.3
23:33 13.5 8.6 72 1015
23:43 13.5 8.1 70 1015
23:53 13.6 8 69 1014.9

DAY STATISTIC

2019-09-20
TEMPERATURE
AVERAGE
13.9
HIGH
20.3
13:31
LOW
8.2
07:19
PRESSURE
AVERAGE
1021.2
HIGH
1025.8
00:08
LOW
1014.9
23:53
DEWPOINT
AVERAGE
8.5
HIGH
10.2
09:40
LOW
6.1
06:08
HUMIDITY
AVERAGE
72
HIGH
89
07:59
LOW
49
13:01
TEMPERATURE (°C)
LOW
8.2
HIGH
20.3
AVERAGE
13.9
PRESSURE (hpa)
LOW
1014.9
HIGH
1025.8
AVERAGE
1021.2
DEVICE